sensor_id;sensor_type;location;lat;lon;timestamp;pressure;altitude;pressure_sealevel;temperature;humidity
12781;BME280;6454;43.304;24.344;2022-09-09T00:00:51;100193.72;;;20.13;78.91
12781;BME280;6454;43.304;24.344;2022-09-09T00:03:25;100182.69;;;20.13;78.70
12781;BME280;6454;43.304;24.344;2022-09-09T00:05:59;100185.31;;;20.21;77.98
12781;BME280;6454;43.304;24.344;2022-09-09T00:08:38;100182.91;;;20.20;78.25
12781;BME280;6454;43.304;24.344;2022-09-09T00:11:12;100183.63;;;20.17;78.77
12781;BME280;6454;43.304;24.344;2022-09-09T00:13:42;100207.16;;;20.14;78.58
12781;BME280;6454;43.304;24.344;2022-09-09T00:16:16;100189.38;;;20.12;78.67
12781;BME280;6454;43.304;24.344;2022-09-09T00:18:53;100184.00;;;20.03;78.89
12781;BME280;6454;43.304;24.344;2022-09-09T00:21:26;100183.31;;;20.06;78.75
12781;BME280;6454;43.304;24.344;2022-09-09T00:23:58;100185.69;;;20.08;78.95
12781;BME280;6454;43.304;24.344;2022-09-09T00:26:32;100189.50;;;20.03;79.26
12781;BME280;6454;43.304;24.344;2022-09-09T00:29:10;100185.38;;;19.97;79.34
12781;BME280;6454;43.304;24.344;2022-09-09T00:31:41;100178.16;;;19.92;79.77
12781;BME280;6454;43.304;24.344;2022-09-09T00:34:12;100174.97;;;19.90;79.83
12781;BME280;6454;43.304;24.344;2022-09-09T00:36:40;100175.31;;;19.89;79.76
12781;BME280;6454;43.304;24.344;2022-09-09T00:39:13;100171.53;;;19.81;79.72
12781;BME280;6454;43.304;24.344;2022-09-09T00:41:50;100138.69;;;19.49;80.29
12781;BME280;6454;43.304;24.344;2022-09-09T00:44:30;100180.97;;;19.68;80.85
12781;BME280;6454;43.304;24.344;2022-09-09T00:47:12;100161.69;;;19.68;80.68
12781;BME280;6454;43.304;24.344;2022-09-09T00:49:56;100160.00;;;19.64;80.53
12781;BME280;6454;43.304;24.344;2022-09-09T00:52:34;100156.31;;;19.60;80.70
12781;BME280;6454;43.304;24.344;2022-09-09T00:55:07;100165.28;;;19.57;80.82
12781;BME280;6454;43.304;24.344;2022-09-09T00:57:40;100152.22;;;19.54;80.91
12781;BME280;6454;43.304;24.344;2022-09-09T01:00:20;100146.03;;;19.57;80.42
12781;BME280;6454;43.304;24.344;2022-09-09T01:02:59;99972.50;;;18.49;80.28
12781;BME280;6454;43.304;24.344;2022-09-09T01:05:34;100142.88;;;19.70;79.97
12781;BME280;6454;43.304;24.344;2022-09-09T01:08:10;100140.50;;;19.69;79.83
12781;BME280;6454;43.304;24.344;2022-09-09T01:10:44;100148.38;;;19.70;79.87
12781;BME280;6454;43.304;24.344;2022-09-09T01:13:20;100153.53;;;19.72;79.64
12781;BME280;6454;43.304;24.344;2022-09-09T01:15:50;100144.13;;;19.73;79.34
12781;BME280;6454;43.304;24.344;2022-09-09T01:18:21;100143.25;;;19.69;79.61
12781;BME280;6454;43.304;24.344;2022-09-09T01:20:55;100149.56;;;19.69;79.03
12781;BME280;6454;43.304;24.344;2022-09-09T01:23:42;100153.00;;;19.66;78.60
12781;BME280;6454;43.304;24.344;2022-09-09T01:26:28;100154.34;;;19.72;78.33
12781;BME280;6454;43.304;24.344;2022-09-09T01:28:57;100146.66;;;19.78;77.56
12781;BME280;6454;43.304;24.344;2022-09-09T01:31:28;100148.84;;;19.72;77.90
12781;BME280;6454;43.304;24.344;2022-09-09T01:33:57;100152.84;;;19.75;77.65
12781;BME280;6454;43.304;24.344;2022-09-09T01:36:29;100128.34;;;19.58;77.45
12781;BME280;6454;43.304;24.344;2022-09-09T01:38:59;100148.59;;;19.77;77.51
12781;BME280;6454;43.304;24.344;2022-09-09T01:41:28;100157.22;;;19.76;77.19
12781;BME280;6454;43.304;24.344;2022-09-09T01:43:55;100148.59;;;19.77;76.63
12781;BME280;6454;43.304;24.344;2022-09-09T01:46:22;100144.78;;;19.82;76.29
12781;BME280;6454;43.304;24.344;2022-09-09T01:48:51;100138.84;;;19.80;76.23
12781;BME280;6454;43.304;24.344;2022-09-09T01:51:19;100140.00;;;19.79;76.19
12781;BME280;6454;43.304;24.344;2022-09-09T01:53:46;100141.59;;;19.80;75.82
12781;BME280;6454;43.304;24.344;2022-09-09T01:56:22;100145.16;;;19.80;75.68
12781;BME280;6454;43.304;24.344;2022-09-09T01:59:10;100148.03;;;19.84;75.27
12781;BME280;6454;43.304;24.344;2022-09-09T02:01:49;100105.31;;;19.50;75.47
12781;BME280;6454;43.304;24.344;2022-09-09T02:04:31;100130.16;;;19.66;75.53
12781;BME280;6454;43.304;24.344;2022-09-09T02:07:02;100154.31;;;19.84;75.80
12781;BME280;6454;43.304;24.344;2022-09-09T02:09:30;100155.56;;;19.87;75.15
12781;BME280;6454;43.304;24.344;2022-09-09T02:12:01;100150.88;;;19.87;75.53
12781;BME280;6454;43.304;24.344;2022-09-09T02:14:37;100160.19;;;19.83;76.18
12781;BME280;6454;43.304;24.344;2022-09-09T02:17:09;100165.91;;;19.78;75.66
12781;BME280;6454;43.304;24.344;2022-09-09T02:19:39;100161.09;;;19.75;76.38
12781;BME280;6454;43.304;24.344;2022-09-09T02:22:09;100158.34;;;19.75;76.72
12781;BME280;6454;43.304;24.344;2022-09-09T02:24:38;100160.56;;;19.69;76.96
12781;BME280;6454;43.304;24.344;2022-09-09T02:27:08;100162.28;;;19.62;77.50
12781;BME280;6454;43.304;24.344;2022-09-09T02:29:39;100167.56;;;19.55;78.10
12781;BME280;6454;43.304;24.344;2022-09-09T02:32:09;100133.63;;;19.26;78.07
12781;BME280;6454;43.304;24.344;2022-09-09T02:34:41;100170.66;;;19.41;78.57
12781;BME280;6454;43.304;24.344;2022-09-09T02:37:10;100166.50;;;19.35;78.54
12781;BME280;6454;43.304;24.344;2022-09-09T02:39:38;100166.28;;;19.28;78.91
12781;BME280;6454;43.304;24.344;2022-09-09T02:42:05;100158.72;;;19.25;79.15
12781;BME280;6454;43.304;24.344;2022-09-09T02:44:34;100160.19;;;19.22;79.23
12781;BME280;6454;43.304;24.344;2022-09-09T02:47:14;100116.06;;;18.83;79.30
12781;BME280;6454;43.304;24.344;2022-09-09T02:49:53;100163.31;;;19.21;79.77
12781;BME280;6454;43.304;24.344;2022-09-09T02:52:28;100164.34;;;19.16;79.34
12781;BME280;6454;43.304;24.344;2022-09-09T02:55:04;100153.19;;;19.01;79.56
12781;BME280;6454;43.304;24.344;2022-09-09T02:57:34;100165.25;;;19.08;80.03
12781;BME280;6454;43.304;24.344;2022-09-09T03:00:04;100163.84;;;19.02;80.39
12781;BME280;6454;43.304;24.344;2022-09-09T03:02:33;100170.16;;;18.91;80.68
12781;BME280;6454;43.304;24.344;2022-09-09T03:05:00;100162.47;;;18.96;80.66
12781;BME280;6454;43.304;24.344;2022-09-09T03:07:27;100167.84;;;18.93;81.20
12781;BME280;6454;43.304;24.344;2022-09-09T03:09:54;100151.78;;;18.83;80.54
12781;BME280;6454;43.304;24.344;2022-09-09T03:12:21;100166.34;;;18.83;80.98
12781;BME280;6454;43.304;24.344;2022-09-09T03:14:48;100161.97;;;18.82;80.68
12781;BME280;6454;43.304;24.344;2022-09-09T03:17:15;100172.31;;;18.85;80.78
12781;BME280;6454;43.304;24.344;2022-09-09T03:19:43;100171.16;;;18.86;80.65
12781;BME280;6454;43.304;24.344;2022-09-09T03:22:10;100175.88;;;18.86;80.66
12781;BME280;6454;43.304;24.344;2022-09-09T03:24:38;100170.72;;;18.84;80.69
12781;BME280;6454;43.304;24.344;2022-09-09T03:27:05;100178.22;;;18.75;80.99
12781;BME280;6454;43.304;24.344;2022-09-09T03:29:32;100173.69;;;18.79;81.07
12781;BME280;6454;43.304;24.344;2022-09-09T03:31:59;100181.94;;;18.79;80.83
12781;BME280;6454;43.304;24.344;2022-09-09T03:34:26;100179.28;;;18.83;80.99
12781;BME280;6454;43.304;24.344;2022-09-09T03:36:56;100170.72;;;18.84;81.05
12781;BME280;6454;43.304;24.344;2022-09-09T03:39:23;100185.34;;;18.76;81.57
12781;BME280;6454;43.304;24.344;2022-09-09T03:41:50;100182.16;;;18.74;81.09
12781;BME280;6454;43.304;24.344;2022-09-09T03:44:17;100177.78;;;18.73;81.13
12781;BME280;6454;43.304;24.344;2022-09-09T03:46:44;100173.78;;;18.83;80.08
12781;BME280;6454;43.304;24.344;2022-09-09T03:49:11;100177.81;;;18.85;80.15
12781;BME280;6454;43.304;24.344;2022-09-09T03:51:38;100171.75;;;18.92;79.55
12781;BME280;6454;43.304;24.344;2022-09-09T03:54:07;100157.53;;;18.90;79.44
12781;BME280;6454;43.304;24.344;2022-09-09T03:56:36;100166.13;;;19.00;79.01
12781;BME280;6454;43.304;24.344;2022-09-09T03:59:03;100102.66;;;18.57;78.81
12781;BME280;6454;43.304;24.344;2022-09-09T04:01:30;100161.47;;;19.13;78.16
12781;BME280;6454;43.304;24.344;2022-09-09T04:03:57;100165.59;;;19.19;77.66
12781;BME280;6454;43.304;24.344;2022-09-09T04:06:24;100168.91;;;19.24;77.33
12781;BME280;6454;43.304;24.344;2022-09-09T04:08:52;100165.03;;;19.25;76.96
12781;BME280;6454;43.304;24.344;2022-09-09T04:11:20;100181.75;;;19.33;76.90
12781;BME280;6454;43.304;24.344;2022-09-09T04:13:47;100169.25;;;19.35;76.45
12781;BME280;6454;43.304;24.344;2022-09-09T04:16:15;100165.50;;;19.40;76.28
12781;BME280;6454;43.304;24.344;2022-09-09T04:18:42;100175.81;;;19.43;75.83
12781;BME280;6454;43.304;24.344;2022-09-09T04:21:09;100134.09;;;19.16;75.58
12781;BME280;6454;43.304;24.344;2022-09-09T04:23:37;100114.94;;;18.96;75.70
12781;BME280;6454;43.304;24.344;2022-09-09T04:26:05;100127.56;;;19.09;75.72
12781;BME280;6454;43.304;24.344;2022-09-09T04:28:36;100175.34;;;19.53;76.45
12781;BME280;6454;43.304;24.344;2022-09-09T04:31:07;100183.16;;;19.51;77.07
12781;BME280;6454;43.304;24.344;2022-09-09T04:33:35;100191.28;;;19.47;77.11
12781;BME280;6454;43.304;24.344;2022-09-09T04:36:02;100188.22;;;19.49;77.22
12781;BME280;6454;43.304;24.344;2022-09-09T04:38:30;100198.75;;;19.47;77.51
12781;BME280;6454;43.304;24.344;2022-09-09T04:40:57;100199.22;;;19.49;75.55
12781;BME280;6454;43.304;24.344;2022-09-09T04:43:24;100203.69;;;19.53;75.28
12781;BME280;6454;43.304;24.344;2022-09-09T04:45:54;100198.84;;;19.50;75.12
12781;BME280;6454;43.304;24.344;2022-09-09T04:48:21;100134.31;;;19.11;75.53
12781;BME280;6454;43.304;24.344;2022-09-09T04:50:56;100193.34;;;19.50;76.08
12781;BME280;6454;43.304;24.344;2022-09-09T04:53:25;100052.50;;;18.60;75.13
12781;BME280;6454;43.304;24.344;2022-09-09T04:55:52;100147.16;;;19.19;75.07
12781;BME280;6454;43.304;24.344;2022-09-09T04:58:20;100192.34;;;19.67;74.53
12781;BME280;6454;43.304;24.344;2022-09-09T05:00:48;100191.06;;;19.76;74.64
12781;BME280;6454;43.304;24.344;2022-09-09T05:03:16;100188.97;;;19.85;74.13
12781;BME280;6454;43.304;24.344;2022-09-09T05:05:43;100179.78;;;19.93;74.17
12781;BME280;6454;43.304;24.344;2022-09-09T05:08:10;100184.00;;;20.03;73.32
12781;BME280;6454;43.304;24.344;2022-09-09T05:10:38;100145.81;;;19.89;72.97
12781;BME280;6454;43.304;24.344;2022-09-09T05:13:07;100161.97;;;20.03;73.19
12781;BME280;6454;43.304;24.344;2022-09-09T05:15:34;100181.53;;;20.26;73.46
12781;BME280;6454;43.304;24.344;2022-09-09T05:18:01;100173.13;;;20.34;73.26
12781;BME280;6454;43.304;24.344;2022-09-09T05:20:30;100171.47;;;20.45;72.44
12781;BME280;6454;43.304;24.344;2022-09-09T05:22:57;100177.63;;;20.54;72.90
12781;BME280;6454;43.304;24.344;2022-09-09T05:25:24;100177.84;;;20.62;71.57
12781;BME280;6454;43.304;24.344;2022-09-09T05:27:52;100170.25;;;20.59;71.56
12781;BME280;6454;43.304;24.344;2022-09-09T05:30:20;100186.09;;;20.77;71.44
12781;BME280;6454;43.304;24.344;2022-09-09T05:32:47;100180.78;;;20.84;70.81
12781;BME280;6454;43.304;24.344;2022-09-09T05:35:14;100176.25;;;20.92;71.09
12781;BME280;6454;43.304;24.344;2022-09-09T05:37:43;100176.91;;;21.01;70.86
12781;BME280;6454;43.304;24.344;2022-09-09T05:40:11;100169.72;;;21.12;69.85
12781;BME280;6454;43.304;24.344;2022-09-09T05:42:38;100174.97;;;21.17;69.89
12781;BME280;6454;43.304;24.344;2022-09-09T05:45:06;100184.31;;;21.28;69.75
12781;BME280;6454;43.304;24.344;2022-09-09T05:47:34;100175.84;;;21.37;69.82
12781;BME280;6454;43.304;24.344;2022-09-09T05:50:03;100173.34;;;21.47;70.71
12781;BME280;6454;43.304;24.344;2022-09-09T05:52:30;100141.13;;;21.36;69.86
12781;BME280;6454;43.304;24.344;2022-09-09T05:54:59;100175.59;;;21.76;69.03
12781;BME280;6454;43.304;24.344;2022-09-09T05:57:26;100179.00;;;21.86;68.89
12781;BME280;6454;43.304;24.344;2022-09-09T05:59:53;100174.50;;;21.97;68.04
12781;BME280;6454;43.304;24.344;2022-09-09T06:02:20;100149.19;;;21.95;67.30
12781;BME280;6454;43.304;24.344;2022-09-09T06:04:47;100169.78;;;22.16;67.42
12781;BME280;6454;43.304;24.344;2022-09-09T06:07:15;100107.44;;;21.80;66.92
12781;BME280;6454;43.304;24.344;2022-09-09T06:09:42;100181.66;;;22.36;67.83
12781;BME280;6454;43.304;24.344;2022-09-09T06:12:10;100172.81;;;22.50;67.97
12781;BME280;6454;43.304;24.344;2022-09-09T06:14:37;100182.22;;;22.64;67.76
12781;BME280;6454;43.304;24.344;2022-09-09T06:17:04;100186.72;;;22.72;66.15
12781;BME280;6454;43.304;24.344;2022-09-09T06:19:32;100188.50;;;22.84;66.15
12781;BME280;6454;43.304;24.344;2022-09-09T06:21:58;100196.28;;;22.97;65.52
12781;BME280;6454;43.304;24.344;2022-09-09T06:24:25;100195.28;;;23.09;65.40
12781;BME280;6454;43.304;24.344;2022-09-09T06:26:52;100203.41;;;23.21;64.90
12781;BME280;6454;43.304;24.344;2022-09-09T06:29:21;100191.78;;;23.35;63.66
12781;BME280;6454;43.304;24.344;2022-09-09T06:31:47;100191.28;;;23.52;62.60
12781;BME280;6454;43.304;24.344;2022-09-09T06:34:14;100191.09;;;23.64;62.29
12781;BME280;6454;43.304;24.344;2022-09-09T06:36:41;100194.44;;;23.77;61.95
12781;BME280;6454;43.304;24.344;2022-09-09T06:39:08;100202.16;;;23.90;60.84
12781;BME280;6454;43.304;24.344;2022-09-09T06:41:36;100161.53;;;23.71;60.96
12781;BME280;6454;43.304;24.344;2022-09-09T06:44:04;100191.16;;;24.23;60.11
12781;BME280;6454;43.304;24.344;2022-09-09T06:46:32;100190.56;;;24.41;58.44
12781;BME280;6454;43.304;24.344;2022-09-09T06:49:01;100145.75;;;24.35;58.21
12781;BME280;6454;43.304;24.344;2022-09-09T06:51:29;100183.44;;;24.73;57.66
12781;BME280;6454;43.304;24.344;2022-09-09T06:53:57;100183.59;;;24.90;55.37
12781;BME280;6454;43.304;24.344;2022-09-09T06:56:27;100179.78;;;25.06;53.00
12781;BME280;6454;43.304;24.344;2022-09-09T06:58:55;100192.59;;;25.17;51.85
12781;BME280;6454;43.304;24.344;2022-09-09T07:01:25;100187.91;;;25.28;52.48
12781;BME280;6454;43.304;24.344;2022-09-09T07:03:55;100104.28;;;24.86;51.56
12781;BME280;6454;43.304;24.344;2022-09-09T07:06:25;100171.47;;;25.49;53.54
12781;BME280;6454;43.304;24.344;2022-09-09T07:08:54;100173.91;;;25.58;51.81
12781;BME280;6454;43.304;24.344;2022-09-09T07:11:24;100173.16;;;25.68;51.17
12781;BME280;6454;43.304;24.344;2022-09-09T07:13:52;100182.78;;;25.81;50.88
12781;BME280;6454;43.304;24.344;2022-09-09T07:16:22;100183.25;;;25.94;50.57
12781;BME280;6454;43.304;24.344;2022-09-09T07:18:50;100182.94;;;26.06;50.49
12781;BME280;6454;43.304;24.344;2022-09-09T07:21:18;100131.56;;;25.75;50.63
12781;BME280;6454;43.304;24.344;2022-09-09T07:23:46;100194.56;;;26.26;49.19
12781;BME280;6454;43.304;24.344;2022-09-09T07:26:14;100197.41;;;26.36;49.47
12781;BME280;6454;43.304;24.344;2022-09-09T07:28:42;100139.66;;;26.05;49.28
12781;BME280;6454;43.304;24.344;2022-09-09T07:31:14;100194.25;;;26.48;48.00
12781;BME280;6454;43.304;24.344;2022-09-09T07:33:42;100196.28;;;26.58;48.88
12781;BME280;6454;43.304;24.344;2022-09-09T07:36:12;100180.81;;;26.64;48.31
12781;BME280;6454;43.304;24.344;2022-09-09T07:38:43;100190.81;;;26.83;48.57
12781;BME280;6454;43.304;24.344;2022-09-09T07:41:14;100196.00;;;26.92;46.71
12781;BME280;6454;43.304;24.344;2022-09-09T07:43:43;100194.44;;;27.01;47.03
12781;BME280;6454;43.304;24.344;2022-09-09T07:46:12;100182.53;;;27.15;47.33
12781;BME280;6454;43.304;24.344;2022-09-09T07:48:43;100188.47;;;27.27;45.95
12781;BME280;6454;43.304;24.344;2022-09-09T07:51:13;100195.25;;;27.37;45.54
12781;BME280;6454;43.304;24.344;2022-09-09T07:53:44;100192.09;;;27.38;45.55
12781;BME280;6454;43.304;24.344;2022-09-09T07:56:13;100193.28;;;27.48;46.05
12781;BME280;6454;43.304;24.344;2022-09-09T07:58:41;100191.28;;;27.59;46.24
12781;BME280;6454;43.304;24.344;2022-09-09T08:01:09;100189.66;;;27.72;45.31
12781;BME280;6454;43.304;24.344;2022-09-09T08:03:36;100185.66;;;27.80;45.43
12781;BME280;6454;43.304;24.344;2022-09-09T08:06:05;100185.22;;;27.92;46.04
12781;BME280;6454;43.304;24.344;2022-09-09T08:08:33;100171.28;;;28.06;45.36
12781;BME280;6454;43.304;24.344;2022-09-09T08:11:07;100175.22;;;28.20;44.94
12781;BME280;6454;43.304;24.344;2022-09-09T08:13:35;100109.19;;;27.92;44.52
12781;BME280;6454;43.304;24.344;2022-09-09T08:16:07;100174.31;;;28.44;44.37
12781;BME280;6454;43.304;24.344;2022-09-09T08:18:34;100161.91;;;28.55;44.49
12781;BME280;6454;43.304;24.344;2022-09-09T08:21:07;100116.97;;;28.32;44.02
12781;BME280;6454;43.304;24.344;2022-09-09T08:23:35;100163.00;;;28.79;43.72
12781;BME280;6454;43.304;24.344;2022-09-09T08:26:05;100158.94;;;28.87;43.29
12781;BME280;6454;43.304;24.344;2022-09-09T08:28:32;100164.88;;;28.96;42.79
12781;BME280;6454;43.304;24.344;2022-09-09T08:31:06;100155.25;;;29.04;42.81
12781;BME280;6454;43.304;24.344;2022-09-09T08:33:33;100156.41;;;29.07;42.09
12781;BME280;6454;43.304;24.344;2022-09-09T08:36:02;100155.16;;;29.11;42.49
12781;BME280;6454;43.304;24.344;2022-09-09T08:38:29;100149.94;;;29.20;43.09
12781;BME280;6454;43.304;24.344;2022-09-09T08:41:07;100149.91;;;29.17;42.70
12781;BME280;6454;43.304;24.344;2022-09-09T08:43:37;100157.91;;;29.18;42.77
12781;BME280;6454;43.304;24.344;2022-09-09T08:46:10;100161.50;;;29.19;42.88
12781;BME280;6454;43.304;24.344;2022-09-09T08:48:50;100155.44;;;29.31;42.59
12781;BME280;6454;43.304;24.344;2022-09-09T08:51:19;100155.66;;;29.47;42.36
12781;BME280;6454;43.304;24.344;2022-09-09T08:53:49;100136.91;;;29.48;41.99
12781;BME280;6454;43.304;24.344;2022-09-09T08:56:24;100155.78;;;29.77;41.15
12781;BME280;6454;43.304;24.344;2022-09-09T08:58:53;100159.16;;;29.99;42.36
12781;BME280;6454;43.304;24.344;2022-09-09T09:01:44;100157.91;;;30.04;41.40
12781;BME280;6454;43.304;24.344;2022-09-09T09:04:34;100162.94;;;30.16;41.85
12781;BME280;6454;43.304;24.344;2022-09-09T09:07:09;100160.53;;;30.18;40.52
12781;BME280;6454;43.304;24.344;2022-09-09T09:09:46;100152.13;;;30.18;40.35
12781;BME280;6454;43.304;24.344;2022-09-09T09:12:19;100158.06;;;30.23;41.17
12781;BME280;6454;43.304;24.344;2022-09-09T09:14:48;100148.06;;;30.22;40.34
12781;BME280;6454;43.304;24.344;2022-09-09T09:17:18;100153.28;;;30.20;39.48
12781;BME280;6454;43.304;24.344;2022-09-09T09:19:46;100147.28;;;30.22;41.26
12781;BME280;6454;43.304;24.344;2022-09-09T09:22:17;100139.28;;;30.24;40.99
12781;BME280;6454;43.304;24.344;2022-09-09T09:24:51;100143.97;;;30.30;40.59
12781;BME280;6454;43.304;24.344;2022-09-09T09:27:31;100131.91;;;30.37;39.64
12781;BME280;6454;43.304;24.344;2022-09-09T09:30:00;100136.28;;;30.41;39.52
12781;BME280;6454;43.304;24.344;2022-09-09T09:32:31;100135.69;;;30.53;40.26
12781;BME280;6454;43.304;24.344;2022-09-09T09:35:02;100129.34;;;30.49;39.54
12781;BME280;6454;43.304;24.344;2022-09-09T09:37:34;100138.91;;;30.52;39.56
12781;BME280;6454;43.304;24.344;2022-09-09T09:40:08;100138.97;;;30.48;39.78
12781;BME280;6454;43.304;24.344;2022-09-09T09:42:37;100130.94;;;30.50;40.58
12781;BME280;6454;43.304;24.344;2022-09-09T09:45:17;100138.06;;;30.55;40.25
12781;BME280;6454;43.304;24.344;2022-09-09T09:47:58;100138.63;;;30.43;41.91
12781;BME280;6454;43.304;24.344;2022-09-09T09:50:25;100145.53;;;30.35;42.83
12781;BME280;6454;43.304;24.344;2022-09-09T09:52:56;100073.56;;;29.71;42.77
12781;BME280;6454;43.304;24.344;2022-09-09T09:55:25;100136.06;;;30.22;43.40
12781;BME280;6454;43.304;24.344;2022-09-09T09:58:01;100139.56;;;30.29;42.90
12781;BME280;6454;43.304;24.344;2022-09-09T10:00:28;100144.34;;;30.32;42.64
12781;BME280;6454;43.304;24.344;2022-09-09T10:02:55;100105.38;;;30.18;43.08
12781;BME280;6454;43.304;24.344;2022-09-09T10:05:25;100142.16;;;30.47;42.79
12781;BME280;6454;43.304;24.344;2022-09-09T10:08:02;100140.06;;;30.54;42.89
12781;BME280;6454;43.304;24.344;2022-09-09T10:10:42;100101.25;;;30.26;40.80
12781;BME280;6454;43.304;24.344;2022-09-09T10:13:19;100142.03;;;30.57;42.36
12781;BME280;6454;43.304;24.344;2022-09-09T10:15:57;100137.25;;;30.54;42.94
12781;BME280;6454;43.304;24.344;2022-09-09T10:18:40;100138.59;;;30.46;43.55
12781;BME280;6454;43.304;24.344;2022-09-09T10:21:16;100130.94;;;30.50;43.60
12781;BME280;6454;43.304;24.344;2022-09-09T10:23:59;100138.09;;;30.51;43.47
12781;BME280;6454;43.304;24.344;2022-09-09T10:26:35;100139.59;;;30.59;43.53
12781;BME280;6454;43.304;24.344;2022-09-09T10:29:20;100128.03;;;30.57;43.07
12781;BME280;6454;43.304;24.344;2022-09-09T10:32:00;100110.97;;;30.48;43.29
12781;BME280;6454;43.304;24.344;2022-09-09T10:34:48;100126.06;;;30.54;43.36
12781;BME280;6454;43.304;24.344;2022-09-09T10:37:35;100122.75;;;30.63;42.98
12781;BME280;6454;43.304;24.344;2022-09-09T10:40:15;100129.16;;;30.64;43.27
12781;BME280;6454;43.304;24.344;2022-09-09T10:42:46;100122.63;;;30.70;41.89
12781;BME280;6454;43.304;24.344;2022-09-09T10:45:18;100128.09;;;30.81;42.83
12781;BME280;6454;43.304;24.344;2022-09-09T10:48:00;100127.97;;;30.88;42.83
12781;BME280;6454;43.304;24.344;2022-09-09T10:50:51;100126.72;;;30.92;42.53
12781;BME280;6454;43.304;24.344;2022-09-09T10:53:27;100137.56;;;30.90;42.38
12781;BME280;6454;43.304;24.344;2022-09-09T10:56:06;100139.19;;;30.88;42.67
12781;BME280;6454;43.304;24.344;2022-09-09T10:58:38;100144.06;;;30.84;41.86
12781;BME280;6454;43.304;24.344;2022-09-09T11:01:15;100111.69;;;30.52;41.31
12781;BME280;6454;43.304;24.344;2022-09-09T11:03:43;100139.47;;;30.67;42.25
12781;BME280;6454;43.304;24.344;2022-09-09T11:06:16;100135.47;;;30.68;42.15
12781;BME280;6454;43.304;24.344;2022-09-09T11:08:45;100035.94;;;29.76;43.10
12781;BME280;6454;43.304;24.344;2022-09-09T11:11:18;100140.44;;;30.56;43.45
12781;BME280;6454;43.304;24.344;2022-09-09T11:13:51;100142.13;;;30.50;42.79
12781;BME280;6454;43.304;24.344;2022-09-09T11:16:25;100141.41;;;30.46;43.46
12781;BME280;6454;43.304;24.344;2022-09-09T11:18:58;100144.94;;;30.50;43.88
12781;BME280;6454;43.304;24.344;2022-09-09T11:21:31;100146.66;;;30.41;43.47
12781;BME280;6454;43.304;24.344;2022-09-09T11:24:02;100148.63;;;30.44;43.32
12781;BME280;6454;43.304;24.344;2022-09-09T11:26:37;100140.63;;;30.42;44.22
12781;BME280;6454;43.304;24.344;2022-09-09T11:29:33;100135.41;;;30.44;43.54
12781;BME280;6454;43.304;24.344;2022-09-09T11:32:17;100095.00;;;30.15;43.07
12781;BME280;6454;43.304;24.344;2022-09-09T11:34:53;100138.28;;;30.41;43.21
12781;BME280;6454;43.304;24.344;2022-09-09T11:37:53;100139.22;;;30.27;43.46
12781;BME280;6454;43.304;24.344;2022-09-09T11:40:26;100134.91;;;30.19;43.42
12781;BME280;6454;43.304;24.344;2022-09-09T11:43:05;100141.94;;;30.01;43.52
12781;BME280;6454;43.304;24.344;2022-09-09T11:45:36;100133.28;;;29.91;44.83
12781;BME280;6454;43.304;24.344;2022-09-09T11:48:05;100134.44;;;29.94;44.99
12781;BME280;6454;43.304;24.344;2022-09-09T11:50:34;100132.41;;;29.94;45.34
12781;BME280;6454;43.304;24.344;2022-09-09T11:53:22;100140.78;;;29.98;43.63
12781;BME280;6454;43.304;24.344;2022-09-09T11:56:24;100129.69;;;29.91;44.39
12781;BME280;6454;43.304;24.344;2022-09-09T11:58:56;100125.25;;;29.93;44.88
12781;BME280;6454;43.304;24.344;2022-09-09T12:01:38;100130.75;;;30.01;45.04
12781;BME280;6454;43.304;24.344;2022-09-09T12:04:29;100131.09;;;30.06;45.08
12781;BME280;6454;43.304;24.344;2022-09-09T12:07:00;100095.88;;;29.78;43.56
12781;BME280;6454;43.304;24.344;2022-09-09T12:09:44;100102.97;;;29.86;43.78
12781;BME280;6454;43.304;24.344;2022-09-09T12:12:32;100108.88;;;29.92;44.62
12781;BME280;6454;43.304;24.344;2022-09-09T12:15:23;100105.72;;;29.90;44.67
12781;BME280;6454;43.304;24.344;2022-09-09T12:17:54;100105.31;;;29.91;44.10
12781;BME280;6454;43.304;24.344;2022-09-09T12:20:29;100057.69;;;29.61;43.94
12781;BME280;6454;43.304;24.344;2022-09-09T12:26:18;100100.81;;;29.64;44.33
12781;BME280;6454;43.304;24.344;2022-09-09T12:28:54;100068.38;;;29.32;44.44
12781;BME280;6454;43.304;24.344;2022-09-09T12:31:27;100094.97;;;29.48;44.91
12781;BME280;6454;43.304;24.344;2022-09-09T12:34:06;99981.97;;;28.70;45.28
12781;BME280;6454;43.304;24.344;2022-09-09T12:36:39;100096.19;;;29.47;44.66
12781;BME280;6454;43.304;24.344;2022-09-09T12:39:17;100098.19;;;29.46;45.01
12781;BME280;6454;43.304;24.344;2022-09-09T12:41:51;100097.78;;;29.48;44.44
12781;BME280;6454;43.304;24.344;2022-09-09T12:44:23;100103.00;;;29.46;44.35
12781;BME280;6454;43.304;24.344;2022-09-09T12:46:51;100106.13;;;29.51;44.71
12781;BME280;6454;43.304;24.344;2022-09-09T12:49:29;100108.03;;;29.58;44.55
12781;BME280;6454;43.304;24.344;2022-09-09T12:52:03;100111.34;;;29.49;45.43
12781;BME280;6454;43.304;24.344;2022-09-09T12:54:33;100101.81;;;29.43;45.73
12781;BME280;6454;43.304;24.344;2022-09-09T12:57:01;100098.59;;;29.45;45.61
12781;BME280;6454;43.304;24.344;2022-09-09T12:59:36;100095.50;;;29.35;45.80
12781;BME280;6454;43.304;24.344;2022-09-09T13:02:16;100093.53;;;29.32;45.80
12781;BME280;6454;43.304;24.344;2022-09-09T13:04:44;100096.41;;;29.25;47.06
12781;BME280;6454;43.304;24.344;2022-09-09T13:07:14;100094.84;;;29.21;47.01
12781;BME280;6454;43.304;24.344;2022-09-09T13:09:42;100091.25;;;29.17;47.49
12781;BME280;6454;43.304;24.344;2022-09-09T13:12:15;100094.03;;;29.17;47.26
12781;BME280;6454;43.304;24.344;2022-09-09T13:14:45;100095.66;;;29.14;48.15
12781;BME280;6454;43.304;24.344;2022-09-09T13:17:20;100071.88;;;28.99;48.71